This is the latest recevied weather packets stored in our database for station/object KF7OVD-WX. If no packets are shown the sender has not sent any weather packets the latest 10 day(s).
| Time | Temp. | Humidity | Pressure | Rain* | Wind** | Luminosity | Snow |
|---|---|---|---|---|---|---|---|
| 1777648225 | 13.33° C | 34% | 1023.7 hPa | 0 mm | - | - | - |
| 1777647017 | 11.67° C | 36% | 1023.5 hPa | 0 mm | - | - | - |
| 1777646735 | 10° C | 40% | 1023.5 hPa | 0 mm | - | - | - |
| 1777644620 | 5° C | 56% | 1023.3 hPa | 0 mm | - | - | - |
| 1777642825 | -0.56° C | 73% | 1023.1 hPa | 0 mm | - | - | - |
| 1777641920 | -1.67° C | 78% | 1022.8 hPa | 0 mm | - | - | - |
| 1777641618 | -1.67° C | 79% | 1022.7 hPa | 0 mm | - | - | - |
| 1777640417 | -2.78° C | 80% | 1022.2 hPa | 0 mm | - | - | - |
| 1777640116 | -2.22° C | 77% | 1022.2 hPa | 0 mm | - | - | - |
| 1777639530 | -2.78° C | 76% | 1022.2 hPa | 0 mm | - | - | - |
| 1777638021 | -1.67° C | 72% | 1022 hPa | 0 mm | - | - | - |
| 1777635061 | 0° C | 71% | 1021.8 hPa | 0 mm | - | - | - |
| 1777634719 | 0° C | 71% | 1021.7 hPa | 0 mm | - | - | - |
| 1777634418 | 0° C | 71% | 1021.6 hPa | 0 mm | - | - | - |
| 1777633830 | 0° C | 71% | 1021.8 hPa | 0 mm | - | - | - |
| 1777632637 | 0° C | 72% | 1021.6 hPa | 0 mm | - | - | - |
| 1777631432 | 0° C | 73% | 1021.6 hPa | 0 mm | - | - | - |
| 1777630264 | 0° C | 73% | 1021.4 hPa | 0 mm | - | - | - |
| 1777629923 | 0° C | 73% | 1021.4 hPa | 0 mm | - | - | - |
| 1777629619 | 0° C | 73% | 1021.4 hPa | 0 mm | - | - | - |
| 1777629054 | 0.56° C | 72% | 1021.4 hPa | 0 mm | - | - | - |
| 1777628126 | 0.56° C | 72% | 1021.4 hPa | 0 mm | - | - | - |
| 1777626918 | 1.11° C | 71% | 1021.4 hPa | 0 mm | - | - | - |
| 1777624219 | 2.22° C | 68% | 1021.6 hPa | 0 mm | - | - | - |
| 1777620021 | 2.78° C | 65% | 1021.6 hPa | 0 mm | - | - | - |
* Rain latest hour (hover to see other rain measurements)
** Current wind speed in m/s (hover to see current wind gust speed)